sensor_id;sensor_type;location;lat;lon;timestamp;temperature;humidity
24252;DHT22;12380;51.118;4.176;2022-12-07T00:00:02;4.80;99.90
24252;DHT22;12380;51.118;4.176;2022-12-07T00:02:28;4.80;99.90
24252;DHT22;12380;51.118;4.176;2022-12-07T00:04:54;4.80;99.90
24252;DHT22;12380;51.118;4.176;2022-12-07T00:07:20;4.80;99.90
24252;DHT22;12380;51.118;4.176;2022-12-07T00:09:45;4.80;99.90
24252;DHT22;12380;51.118;4.176;2022-12-07T00:12:12;4.70;99.90
24252;DHT22;12380;51.118;4.176;2022-12-07T00:14:37;4.70;99.90
24252;DHT22;12380;51.118;4.176;2022-12-07T00:17:03;4.60;99.90
24252;DHT22;12380;51.118;4.176;2022-12-07T00:19:29;4.60;99.90
24252;DHT22;12380;51.118;4.176;2022-12-07T00:21:56;4.60;99.90
24252;DHT22;12380;51.118;4.176;2022-12-07T00:24:22;4.50;99.90
24252;DHT22;12380;51.118;4.176;2022-12-07T00:26:50;4.40;99.90
24252;DHT22;12380;51.118;4.176;2022-12-07T00:29:20;4.30;99.90
24252;DHT22;12380;51.118;4.176;2022-12-07T00:31:48;4.30;99.90
24252;DHT22;12380;51.118;4.176;2022-12-07T00:34:17;4.20;99.90
24252;DHT22;12380;51.118;4.176;2022-12-07T00:36:43;4.20;99.90
24252;DHT22;12380;51.118;4.176;2022-12-07T00:39:10;4.20;99.90
24252;DHT22;12380;51.118;4.176;2022-12-07T00:41:36;4.20;99.90
24252;DHT22;12380;51.118;4.176;2022-12-07T00:44:01;4.20;99.90
24252;DHT22;12380;51.118;4.176;2022-12-07T00:46:30;4.10;99.90
24252;DHT22;12380;51.118;4.176;2022-12-07T00:48:58;4.10;99.90
24252;DHT22;12380;51.118;4.176;2022-12-07T00:51:26;4.10;99.90
24252;DHT22;12380;51.118;4.176;2022-12-07T00:53:52;4.20;99.90
24252;DHT22;12380;51.118;4.176;2022-12-07T00:56:21;4.20;99.90
24252;DHT22;12380;51.118;4.176;2022-12-07T00:58:51;4.30;99.90
24252;DHT22;12380;51.118;4.176;2022-12-07T01:01:17;4.40;99.90
24252;DHT22;12380;51.118;4.176;2022-12-07T01:03:42;4.50;99.90
24252;DHT22;12380;51.118;4.176;2022-12-07T01:06:13;4.60;99.90
24252;DHT22;12380;51.118;4.176;2022-12-07T01:08:41;4.70;99.90
24252;DHT22;12380;51.118;4.176;2022-12-07T01:11:09;4.80;99.90
24252;DHT22;12380;51.118;4.176;2022-12-07T01:13:39;5.00;99.90
24252;DHT22;12380;51.118;4.176;2022-12-07T01:16:08;5.10;99.90
24252;DHT22;12380;51.118;4.176;2022-12-07T01:18:36;5.10;99.90
24252;DHT22;12380;51.118;4.176;2022-12-07T01:21:04;5.10;99.90
24252;DHT22;12380;51.118;4.176;2022-12-07T01:23:32;5.20;99.90
24252;DHT22;12380;51.118;4.176;2022-12-07T01:26:01;5.40;99.90
24252;DHT22;12380;51.118;4.176;2022-12-07T01:28:27;5.40;99.90
24252;DHT22;12380;51.118;4.176;2022-12-07T01:30:58;5.30;99.90
24252;DHT22;12380;51.118;4.176;2022-12-07T01:33:31;5.30;99.90
24252;DHT22;12380;51.118;4.176;2022-12-07T01:36:02;5.40;99.90
24252;DHT22;12380;51.118;4.176;2022-12-07T01:38:29;5.20;99.90
24252;DHT22;12380;51.118;4.176;2022-12-07T01:40:55;5.40;99.90
24252;DHT22;12380;51.118;4.176;2022-12-07T01:43:24;5.40;99.90
24252;DHT22;12380;51.118;4.176;2022-12-07T01:45:51;5.30;99.90
24252;DHT22;12380;51.118;4.176;2022-12-07T01:48:18;5.30;99.90
24252;DHT22;12380;51.118;4.176;2022-12-07T01:50:45;5.30;99.90
24252;DHT22;12380;51.118;4.176;2022-12-07T01:53:13;5.30;99.90
24252;DHT22;12380;51.118;4.176;2022-12-07T01:55:40;5.20;99.90
24252;DHT22;12380;51.118;4.176;2022-12-07T01:58:06;5.30;99.90
24252;DHT22;12380;51.118;4.176;2022-12-07T02:00:34;5.40;99.90
24252;DHT22;12380;51.118;4.176;2022-12-07T02:05:35;5.10;99.90
24252;DHT22;12380;51.118;4.176;2022-12-07T02:08:01;5.00;99.90
24252;DHT22;12380;51.118;4.176;2022-12-07T02:10:28;5.00;99.90
24252;DHT22;12380;51.118;4.176;2022-12-07T02:13:00;5.00;99.90
24252;DHT22;12380;51.118;4.176;2022-12-07T02:15:28;4.90;99.90
24252;DHT22;12380;51.118;4.176;2022-12-07T02:18:05;4.90;99.90
24252;DHT22;12380;51.118;4.176;2022-12-07T02:20:50;4.80;99.90
24252;DHT22;12380;51.118;4.176;2022-12-07T02:28:35;4.90;99.90
24252;DHT22;12380;51.118;4.176;2022-12-07T02:31:06;4.90;99.90
24252;DHT22;12380;51.118;4.176;2022-12-07T02:33:35;4.90;99.90
24252;DHT22;12380;51.118;4.176;2022-12-07T02:36:03;4.90;99.90
24252;DHT22;12380;51.118;4.176;2022-12-07T02:38:42;4.90;99.90
24252;DHT22;12380;51.118;4.176;2022-12-07T02:41:10;4.90;99.90
24252;DHT22;12380;51.118;4.176;2022-12-07T02:46:14;5.10;99.90
24252;DHT22;12380;51.118;4.176;2022-12-07T02:48:40;5.10;99.90
24252;DHT22;12380;51.118;4.176;2022-12-07T02:51:07;5.10;99.90
24252;DHT22;12380;51.118;4.176;2022-12-07T03:01:21;5.20;99.90
24252;DHT22;12380;51.118;4.176;2022-12-07T03:03:55;5.10;99.90
24252;DHT22;12380;51.118;4.176;2022-12-07T03:06:25;5.00;99.90
24252;DHT22;12380;51.118;4.176;2022-12-07T03:09:08;4.90;99.90
24252;DHT22;12380;51.118;4.176;2022-12-07T03:11:46;5.00;99.90
24252;DHT22;12380;51.118;4.176;2022-12-07T03:16:50;5.00;99.90
24252;DHT22;12380;51.118;4.176;2022-12-07T03:19:19;5.00;99.90
24252;DHT22;12380;51.118;4.176;2022-12-07T03:21:47;5.10;99.90
24252;DHT22;12380;51.118;4.176;2022-12-07T03:24:16;5.10;99.90
24252;DHT22;12380;51.118;4.176;2022-12-07T03:26:44;5.00;99.90
24252;DHT22;12380;51.118;4.176;2022-12-07T03:29:13;4.90;99.90
24252;DHT22;12380;51.118;4.176;2022-12-07T03:31:45;4.70;99.90
24252;DHT22;12380;51.118;4.176;2022-12-07T03:36:57;4.50;99.90
24252;DHT22;12380;51.118;4.176;2022-12-07T03:39:30;4.50;99.90
24252;DHT22;12380;51.118;4.176;2022-12-07T03:41:56;4.50;99.90
24252;DHT22;12380;51.118;4.176;2022-12-07T03:44:27;4.40;99.90
24252;DHT22;12380;51.118;4.176;2022-12-07T03:49:46;4.80;99.90
24252;DHT22;12380;51.118;4.176;2022-12-07T03:52:26;4.90;99.90
24252;DHT22;12380;51.118;4.176;2022-12-07T03:57:32;5.00;99.90
24252;DHT22;12380;51.118;4.176;2022-12-07T04:00:01;5.10;99.90
24252;DHT22;12380;51.118;4.176;2022-12-07T04:02:28;5.10;99.90
24252;DHT22;12380;51.118;4.176;2022-12-07T04:05:00;5.10;99.90
24252;DHT22;12380;51.118;4.176;2022-12-07T04:07:28;5.20;99.90
24252;DHT22;12380;51.118;4.176;2022-12-07T04:09:56;5.20;99.90
24252;DHT22;12380;51.118;4.176;2022-12-07T04:12:23;5.00;99.90
24252;DHT22;12380;51.118;4.176;2022-12-07T04:14:51;4.90;99.90
24252;DHT22;12380;51.118;4.176;2022-12-07T04:17:16;4.90;99.90
24252;DHT22;12380;51.118;4.176;2022-12-07T04:19:42;4.70;99.90
24252;DHT22;12380;51.118;4.176;2022-12-07T04:22:07;4.60;99.90
24252;DHT22;12380;51.118;4.176;2022-12-07T04:24:33;4.60;99.90
24252;DHT22;12380;51.118;4.176;2022-12-07T04:26:59;4.60;99.90
24252;DHT22;12380;51.118;4.176;2022-12-07T04:29:27;4.60;99.90
24252;DHT22;12380;51.118;4.176;2022-12-07T04:31:53;4.60;99.90
24252;DHT22;12380;51.118;4.176;2022-12-07T04:34:19;4.60;99.90
24252;DHT22;12380;51.118;4.176;2022-12-07T04:36:45;4.60;99.90
24252;DHT22;12380;51.118;4.176;2022-12-07T04:39:28;4.50;99.90
24252;DHT22;12380;51.118;4.176;2022-12-07T04:41:54;4.40;99.90
24252;DHT22;12380;51.118;4.176;2022-12-07T04:44:20;4.30;99.90
24252;DHT22;12380;51.118;4.176;2022-12-07T04:46:49;4.20;99.90
24252;DHT22;12380;51.118;4.176;2022-12-07T04:49:17;4.20;99.90
24252;DHT22;12380;51.118;4.176;2022-12-07T04:51:46;4.10;99.90
24252;DHT22;12380;51.118;4.176;2022-12-07T04:54:13;4.20;99.90
24252;DHT22;12380;51.118;4.176;2022-12-07T04:56:38;4.30;99.90
24252;DHT22;12380;51.118;4.176;2022-12-07T04:59:05;4.40;99.90
24252;DHT22;12380;51.118;4.176;2022-12-07T05:01:34;4.40;99.90
24252;DHT22;12380;51.118;4.176;2022-12-07T05:03:59;4.50;99.90
24252;DHT22;12380;51.118;4.176;2022-12-07T05:06:25;4.50;99.90
24252;DHT22;12380;51.118;4.176;2022-12-07T05:08:51;4.60;99.90
24252;DHT22;12380;51.118;4.176;2022-12-07T05:11:16;4.70;99.90
24252;DHT22;12380;51.118;4.176;2022-12-07T05:14:01;4.70;99.90
24252;DHT22;12380;51.118;4.176;2022-12-07T05:16:27;4.70;99.90
24252;DHT22;12380;51.118;4.176;2022-12-07T05:18:53;4.80;99.90
24252;DHT22;12380;51.118;4.176;2022-12-07T05:21:21;4.70;99.90
24252;DHT22;12380;51.118;4.176;2022-12-07T05:23:52;4.50;99.90
24252;DHT22;12380;51.118;4.176;2022-12-07T05:26:20;4.60;99.90
24252;DHT22;12380;51.118;4.176;2022-12-07T05:28:49;4.70;99.90
24252;DHT22;12380;51.118;4.176;2022-12-07T05:31:17;4.80;99.90
24252;DHT22;12380;51.118;4.176;2022-12-07T05:33:47;4.90;99.90
24252;DHT22;12380;51.118;4.176;2022-12-07T05:36:15;4.80;99.90
24252;DHT22;12380;51.118;4.176;2022-12-07T05:38:41;4.80;99.90
24252;DHT22;12380;51.118;4.176;2022-12-07T05:41:08;4.80;99.90
24252;DHT22;12380;51.118;4.176;2022-12-07T05:43:53;4.80;99.90
24252;DHT22;12380;51.118;4.176;2022-12-07T05:46:19;4.80;99.90
24252;DHT22;12380;51.118;4.176;2022-12-07T05:48:45;4.70;99.90
24252;DHT22;12380;51.118;4.176;2022-12-07T05:51:11;4.70;99.90
24252;DHT22;12380;51.118;4.176;2022-12-07T05:53:37;4.70;99.90
24252;DHT22;12380;51.118;4.176;2022-12-07T05:56:02;4.70;99.90
24252;DHT22;12380;51.118;4.176;2022-12-07T05:58:28;4.60;99.90
24252;DHT22;12380;51.118;4.176;2022-12-07T06:01:12;4.50;99.90
24252;DHT22;12380;51.118;4.176;2022-12-07T06:03:38;4.50;99.90
24252;DHT22;12380;51.118;4.176;2022-12-07T06:06:04;4.50;99.90
24252;DHT22;12380;51.118;4.176;2022-12-07T06:08:29;4.50;99.90
24252;DHT22;12380;51.118;4.176;2022-12-07T06:10:55;4.60;99.90
24252;DHT22;12380;51.118;4.176;2022-12-07T06:13:40;4.60;99.90
24252;DHT22;12380;51.118;4.176;2022-12-07T06:16:06;4.60;99.90
24252;DHT22;12380;51.118;4.176;2022-12-07T06:18:32;4.60;99.90
24252;DHT22;12380;51.118;4.176;2022-12-07T06:21:00;4.50;99.90
24252;DHT22;12380;51.118;4.176;2022-12-07T06:23:29;4.60;99.90
24252;DHT22;12380;51.118;4.176;2022-12-07T06:25:56;4.70;99.90
24252;DHT22;12380;51.118;4.176;2022-12-07T06:28:22;4.70;99.90
24252;DHT22;12380;51.118;4.176;2022-12-07T06:30:47;4.60;99.90
24252;DHT22;12380;51.118;4.176;2022-12-07T06:33:21;4.70;99.90
24252;DHT22;12380;51.118;4.176;2022-12-07T06:35:47;4.70;99.90
24252;DHT22;12380;51.118;4.176;2022-12-07T06:38:12;4.70;99.90
24252;DHT22;12380;51.118;4.176;2022-12-07T06:40:38;4.70;99.90
24252;DHT22;12380;51.118;4.176;2022-12-07T06:43:04;4.50;99.90
24252;DHT22;12380;51.118;4.176;2022-12-07T06:45:31;4.60;99.90
24252;DHT22;12380;51.118;4.176;2022-12-07T06:47:59;4.60;99.90
24252;DHT22;12380;51.118;4.176;2022-12-07T06:50:25;4.70;99.90
24252;DHT22;12380;51.118;4.176;2022-12-07T06:52:51;4.70;99.90
24252;DHT22;12380;51.118;4.176;2022-12-07T06:55:17;4.70;99.90
24252;DHT22;12380;51.118;4.176;2022-12-07T06:57:43;4.70;99.90
24252;DHT22;12380;51.118;4.176;2022-12-07T07:00:08;4.60;99.90
24252;DHT22;12380;51.118;4.176;2022-12-07T07:02:34;4.40;99.90
24252;DHT22;12380;51.118;4.176;2022-12-07T07:05:00;4.40;99.90
24252;DHT22;12380;51.118;4.176;2022-12-07T07:07:28;4.30;99.90
24252;DHT22;12380;51.118;4.176;2022-12-07T07:09:56;4.20;99.90
24252;DHT22;12380;51.118;4.176;2022-12-07T07:12:22;4.10;99.90
24252;DHT22;12380;51.118;4.176;2022-12-07T07:14:47;4.10;99.90
24252;DHT22;12380;51.118;4.176;2022-12-07T07:17:15;4.00;99.90
24252;DHT22;12380;51.118;4.176;2022-12-07T07:19:41;4.00;99.90
24252;DHT22;12380;51.118;4.176;2022-12-07T07:22:06;3.90;99.90
24252;DHT22;12380;51.118;4.176;2022-12-07T07:24:32;3.90;99.90
24252;DHT22;12380;51.118;4.176;2022-12-07T07:26:58;3.70;99.90
24252;DHT22;12380;51.118;4.176;2022-12-07T07:29:29;3.60;99.90
24252;DHT22;12380;51.118;4.176;2022-12-07T07:31:54;3.60;99.90
24252;DHT22;12380;51.118;4.176;2022-12-07T07:34:20;3.60;99.90
24252;DHT22;12380;51.118;4.176;2022-12-07T07:36:45;3.70;99.90
24252;DHT22;12380;51.118;4.176;2022-12-07T07:39:11;3.70;99.90
24252;DHT22;12380;51.118;4.176;2022-12-07T07:41:38;3.60;99.90
24252;DHT22;12380;51.118;4.176;2022-12-07T07:44:03;3.60;99.90
24252;DHT22;12380;51.118;4.176;2022-12-07T07:46:29;3.70;99.90
24252;DHT22;12380;51.118;4.176;2022-12-07T07:48:55;3.60;99.90
24252;DHT22;12380;51.118;4.176;2022-12-07T07:51:23;3.60;99.90
24252;DHT22;12380;51.118;4.176;2022-12-07T07:53:49;3.70;99.90
24252;DHT22;12380;51.118;4.176;2022-12-07T07:56:15;3.80;99.90
24252;DHT22;12380;51.118;4.176;2022-12-07T07:58:40;3.90;99.90
24252;DHT22;12380;51.118;4.176;2022-12-07T08:01:07;4.10;99.90
24252;DHT22;12380;51.118;4.176;2022-12-07T08:03:33;4.20;99.90
24252;DHT22;12380;51.118;4.176;2022-12-07T08:05:59;4.30;99.90
24252;DHT22;12380;51.118;4.176;2022-12-07T08:08:25;4.30;99.90
24252;DHT22;12380;51.118;4.176;2022-12-07T08:10:50;4.50;99.90
24252;DHT22;12380;51.118;4.176;2022-12-07T08:13:16;4.70;99.90
24252;DHT22;12380;51.118;4.176;2022-12-07T08:15:44;4.80;99.90
24252;DHT22;12380;51.118;4.176;2022-12-07T08:18:10;4.80;99.90
24252;DHT22;12380;51.118;4.176;2022-12-07T08:20:39;4.80;99.90
24252;DHT22;12380;51.118;4.176;2022-12-07T08:23:07;4.90;99.90
24252;DHT22;12380;51.118;4.176;2022-12-07T08:25:35;5.10;99.90
24252;DHT22;12380;51.118;4.176;2022-12-07T08:28:02;5.10;99.90
24252;DHT22;12380;51.118;4.176;2022-12-07T08:30:28;5.40;99.90
24252;DHT22;12380;51.118;4.176;2022-12-07T08:32:54;5.60;99.90
24252;DHT22;12380;51.118;4.176;2022-12-07T08:35:22;5.60;99.90
24252;DHT22;12380;51.118;4.176;2022-12-07T08:37:48;5.80;99.90
24252;DHT22;12380;51.118;4.176;2022-12-07T08:40:14;5.90;99.90
24252;DHT22;12380;51.118;4.176;2022-12-07T08:42:41;6.10;99.90
24252;DHT22;12380;51.118;4.176;2022-12-07T08:45:08;6.00;99.90
24252;DHT22;12380;51.118;4.176;2022-12-07T08:47:35;6.00;99.90
24252;DHT22;12380;51.118;4.176;2022-12-07T08:50:01;5.80;99.90
24252;DHT22;12380;51.118;4.176;2022-12-07T08:52:29;5.80;99.90
24252;DHT22;12380;51.118;4.176;2022-12-07T08:54:55;5.80;99.90
24252;DHT22;12380;51.118;4.176;2022-12-07T08:57:21;5.70;99.90
24252;DHT22;12380;51.118;4.176;2022-12-07T08:59:49;5.60;99.90
24252;DHT22;12380;51.118;4.176;2022-12-07T09:02:15;5.50;99.90
24252;DHT22;12380;51.118;4.176;2022-12-07T09:04:41;5.40;99.90
24252;DHT22;12380;51.118;4.176;2022-12-07T09:07:06;5.40;99.90
24252;DHT22;12380;51.118;4.176;2022-12-07T09:09:32;5.50;99.90
24252;DHT22;12380;51.118;4.176;2022-12-07T09:11:58;5.80;99.90
24252;DHT22;12380;51.118;4.176;2022-12-07T09:14:24;5.90;99.90
24252;DHT22;12380;51.118;4.176;2022-12-07T09:16:52;5.90;99.90
24252;DHT22;12380;51.118;4.176;2022-12-07T09:19:17;5.90;99.90
24252;DHT22;12380;51.118;4.176;2022-12-07T09:21:43;5.90;99.90
24252;DHT22;12380;51.118;4.176;2022-12-07T09:24:09;5.70;99.90
24252;DHT22;12380;51.118;4.176;2022-12-07T09:26:35;5.50;99.90
24252;DHT22;12380;51.118;4.176;2022-12-07T09:29:04;5.50;99.90
24252;DHT22;12380;51.118;4.176;2022-12-07T09:31:32;5.40;99.90
24252;DHT22;12380;51.118;4.176;2022-12-07T09:33:58;5.40;99.90
24252;DHT22;12380;51.118;4.176;2022-12-07T09:36:25;5.60;99.90
24252;DHT22;12380;51.118;4.176;2022-12-07T09:38:50;5.90;99.90
24252;DHT22;12380;51.118;4.176;2022-12-07T09:41:16;5.90;99.90
24252;DHT22;12380;51.118;4.176;2022-12-07T09:43:42;6.20;99.90
24252;DHT22;12380;51.118;4.176;2022-12-07T09:46:09;6.20;99.90
24252;DHT22;12380;51.118;4.176;2022-12-07T09:48:40;6.00;99.90
24252;DHT22;12380;51.118;4.176;2022-12-07T09:51:21;5.90;99.90
24252;DHT22;12380;51.118;4.176;2022-12-07T09:53:48;5.80;99.90
24252;DHT22;12380;51.118;4.176;2022-12-07T09:56:14;5.90;99.90
24252;DHT22;12380;51.118;4.176;2022-12-07T09:58:40;6.00;99.90
24252;DHT22;12380;51.118;4.176;2022-12-07T10:03:33;6.80;99.90
24252;DHT22;12380;51.118;4.176;2022-12-07T10:06:00;7.00;99.90
24252;DHT22;12380;51.118;4.176;2022-12-07T10:08:26;6.70;99.90
24252;DHT22;12380;51.118;4.176;2022-12-07T10:10:55;6.90;99.90
24252;DHT22;12380;51.118;4.176;2022-12-07T10:13:33;7.50;99.90
24252;DHT22;12380;51.118;4.176;2022-12-07T10:15:59;8.20;99.90
24252;DHT22;12380;51.118;4.176;2022-12-07T10:21:15;9.30;99.90
24252;DHT22;12380;51.118;4.176;2022-12-07T10:24:05;9.70;99.90
24252;DHT22;12380;51.118;4.176;2022-12-07T10:29:00;10.60;99.90
24252;DHT22;12380;51.118;4.176;2022-12-07T10:31:26;10.30;99.90
24252;DHT22;12380;51.118;4.176;2022-12-07T10:33:56;9.80;99.90
24252;DHT22;12380;51.118;4.176;2022-12-07T10:36:36;10.10;99.90
24252;DHT22;12380;51.118;4.176;2022-12-07T10:39:23;10.40;99.90
24252;DHT22;12380;51.118;4.176;2022-12-07T10:42:15;10.20;99.90
24252;DHT22;12380;51.118;4.176;2022-12-07T10:44:33;10.00;99.90
24252;DHT22;12380;51.118;4.176;2022-12-07T10:52:10;11.20;99.90
24252;DHT22;12380;51.118;4.176;2022-12-07T11:00:15;10.80;99.90
24252;DHT22;12380;51.118;4.176;2022-12-07T11:05:26;10.40;99.90
24252;DHT22;12380;51.118;4.176;2022-12-07T11:10:22;10.10;99.90
24252;DHT22;12380;51.118;4.176;2022-12-07T11:12:54;10.20;99.90
24252;DHT22;12380;51.118;4.176;2022-12-07T11:15:45;10.30;99.90
24252;DHT22;12380;51.118;4.176;2022-12-07T11:21:07;10.70;99.90
24252;DHT22;12380;51.118;4.176;2022-12-07T11:26:13;10.70;99.90
24252;DHT22;12380;51.118;4.176;2022-12-07T11:33:47;11.50;99.90
24252;DHT22;12380;51.118;4.176;2022-12-07T11:36:31;11.60;99.90
24252;DHT22;12380;51.118;4.176;2022-12-07T11:39:04;11.70;99.90
24252;DHT22;12380;51.118;4.176;2022-12-07T11:41:31;11.80;99.90
24252;DHT22;12380;51.118;4.176;2022-12-07T11:44:05;11.70;99.90
24252;DHT22;12380;51.118;4.176;2022-12-07T11:46:51;11.60;99.90
24252;DHT22;12380;51.118;4.176;2022-12-07T11:51:48;11.60;99.90
24252;DHT22;12380;51.118;4.176;2022-12-07T11:54:19;12.10;99.90
24252;DHT22;12380;51.118;4.176;2022-12-07T11:56:47;12.20;99.90
24252;DHT22;12380;51.118;4.176;2022-12-07T12:06:41;12.40;99.90
24252;DHT22;12380;51.118;4.176;2022-12-07T12:09:17;12.40;99.90
24252;DHT22;12380;51.118;4.176;2022-12-07T12:19:42;10.60;99.90
24252;DHT22;12380;51.118;4.176;2022-12-07T12:22:18;10.30;99.90
24252;DHT22;12380;51.118;4.176;2022-12-07T12:24:45;9.90;99.90
24252;DHT22;12380;51.118;4.176;2022-12-07T12:27:47;9.80;99.90
24252;DHT22;12380;51.118;4.176;2022-12-07T12:30:23;9.40;99.90
24252;DHT22;12380;51.118;4.176;2022-12-07T12:32:49;9.50;99.90
24252;DHT22;12380;51.118;4.176;2022-12-07T12:35:29;9.10;99.90
24252;DHT22;12380;51.118;4.176;2022-12-07T12:38:20;9.10;99.90
24252;DHT22;12380;51.118;4.176;2022-12-07T12:40:41;9.10;99.90
24252;DHT22;12380;51.118;4.176;2022-12-07T12:43:39;8.90;99.90
24252;DHT22;12380;51.118;4.176;2022-12-07T12:46:35;8.80;99.90
24252;DHT22;12380;51.118;4.176;2022-12-07T12:48:39;9.00;99.90
24252;DHT22;12380;51.118;4.176;2022-12-07T12:53:49;8.80;99.90
24252;DHT22;12380;51.118;4.176;2022-12-07T12:59:26;8.90;99.90
24252;DHT22;12380;51.118;4.176;2022-12-07T13:01:54;9.10;99.90
24252;DHT22;12380;51.118;4.176;2022-12-07T13:04:24;8.70;99.90
24252;DHT22;12380;51.118;4.176;2022-12-07T13:06:51;8.70;99.90
24252;DHT22;12380;51.118;4.176;2022-12-07T13:09:22;8.30;99.90
24252;DHT22;12380;51.118;4.176;2022-12-07T13:11:56;8.40;99.90
24252;DHT22;12380;51.118;4.176;2022-12-07T13:17:53;8.20;99.90
24252;DHT22;12380;51.118;4.176;2022-12-07T13:19:57;8.00;99.90
24252;DHT22;12380;51.118;4.176;2022-12-07T13:25:11;7.80;99.90
24252;DHT22;12380;51.118;4.176;2022-12-07T13:27:37;7.80;99.90
24252;DHT22;12380;51.118;4.176;2022-12-07T13:30:09;7.50;99.90
24252;DHT22;12380;51.118;4.176;2022-12-07T13:32:38;7.50;99.90
24252;DHT22;12380;51.118;4.176;2022-12-07T13:35:27;7.60;99.90
24252;DHT22;12380;51.118;4.176;2022-12-07T13:37:49;7.50;99.90
24252;DHT22;12380;51.118;4.176;2022-12-07T13:40:17;7.30;99.90
24252;DHT22;12380;51.118;4.176;2022-12-07T13:42:44;7.30;99.90
24252;DHT22;12380;51.118;4.176;2022-12-07T13:48:16;7.50;99.90
24252;DHT22;12380;51.118;4.176;2022-12-07T13:50:48;7.40;99.90
24252;DHT22;12380;51.118;4.176;2022-12-07T13:53:17;7.60;99.90
24252;DHT22;12380;51.118;4.176;2022-12-07T13:55:46;7.80;99.90
24252;DHT22;12380;51.118;4.176;2022-12-07T13:58:13;7.70;99.90
24252;DHT22;12380;51.118;4.176;2022-12-07T14:00:39;7.80;99.90
24252;DHT22;12380;51.118;4.176;2022-12-07T14:05:39;7.60;99.90
24252;DHT22;12380;51.118;4.176;2022-12-07T14:10:40;7.60;99.90
24252;DHT22;12380;51.118;4.176;2022-12-07T14:15:53;7.90;99.90
24252;DHT22;12380;51.118;4.176;2022-12-07T14:23:41;7.50;99.90
24252;DHT22;12380;51.118;4.176;2022-12-07T14:26:16;7.70;99.90
24252;DHT22;12380;51.118;4.176;2022-12-07T14:28:46;7.60;99.90
24252;DHT22;12380;51.118;4.176;2022-12-07T14:31:13;7.40;99.90
24252;DHT22;12380;51.118;4.176;2022-12-07T14:33:39;7.00;99.90
24252;DHT22;12380;51.118;4.176;2022-12-07T14:36:09;7.00;99.90
24252;DHT22;12380;51.118;4.176;2022-12-07T14:38:37;7.00;99.90
24252;DHT22;12380;51.118;4.176;2022-12-07T14:41:03;7.00;99.90
24252;DHT22;12380;51.118;4.176;2022-12-07T14:43:48;7.00;99.90
24252;DHT22;12380;51.118;4.176;2022-12-07T14:46:13;7.10;99.90
24252;DHT22;12380;51.118;4.176;2022-12-07T14:48:41;6.80;99.90
24252;DHT22;12380;51.118;4.176;2022-12-07T14:51:07;6.80;99.90
24252;DHT22;12380;51.118;4.176;2022-12-07T14:53:36;6.70;99.90
24252;DHT22;12380;51.118;4.176;2022-12-07T14:56:04;6.60;99.90
24252;DHT22;12380;51.118;4.176;2022-12-07T14:58:33;6.70;99.90
24252;DHT22;12380;51.118;4.176;2022-12-07T15:01:01;6.90;99.90
24252;DHT22;12380;51.118;4.176;2022-12-07T15:03:29;6.80;99.90
24252;DHT22;12380;51.118;4.176;2022-12-07T15:05:56;6.70;99.90
24252;DHT22;12380;51.118;4.176;2022-12-07T15:08:22;6.40;99.90
24252;DHT22;12380;51.118;4.176;2022-12-07T15:10:47;6.50;99.90
24252;DHT22;12380;51.118;4.176;2022-12-07T15:13:16;6.40;99.90
24252;DHT22;12380;51.118;4.176;2022-12-07T15:16:00;6.30;99.90
24252;DHT22;12380;51.118;4.176;2022-12-07T15:18:25;6.30;99.90
24252;DHT22;12380;51.118;4.176;2022-12-07T15:20:51;6.30;99.90
24252;DHT22;12380;51.118;4.176;2022-12-07T15:23:17;6.40;99.90
24252;DHT22;12380;51.118;4.176;2022-12-07T15:25:43;6.30;99.90
24252;DHT22;12380;51.118;4.176;2022-12-07T15:28:11;6.30;99.90
24252;DHT22;12380;51.118;4.176;2022-12-07T15:30:38;6.40;99.90
24252;DHT22;12380;51.118;4.176;2022-12-07T15:33:08;6.40;99.90
24252;DHT22;12380;51.118;4.176;2022-12-07T15:35:38;6.50;99.90
24252;DHT22;12380;51.118;4.176;2022-12-07T15:38:06;6.60;99.90
24252;DHT22;12380;51.118;4.176;2022-12-07T15:40:35;6.60;99.90
24252;DHT22;12380;51.118;4.176;2022-12-07T15:43:01;6.50;99.90
24252;DHT22;12380;51.118;4.176;2022-12-07T15:45:33;6.60;99.90
24252;DHT22;12380;51.118;4.176;2022-12-07T15:48:01;6.70;99.90
24252;DHT22;12380;51.118;4.176;2022-12-07T15:50:26;6.50;99.90
24252;DHT22;12380;51.118;4.176;2022-12-07T15:52:52;6.60;99.90
24252;DHT22;12380;51.118;4.176;2022-12-07T15:55:17;6.50;99.90
24252;DHT22;12380;51.118;4.176;2022-12-07T15:57:43;6.50;99.90
24252;DHT22;12380;51.118;4.176;2022-12-07T16:00:09;6.40;99.90
24252;DHT22;12380;51.118;4.176;2022-12-07T16:02:36;6.40;99.90
24252;DHT22;12380;51.118;4.176;2022-12-07T16:05:02;6.30;99.90
24252;DHT22;12380;51.118;4.176;2022-12-07T16:07:30;6.20;99.90
24252;DHT22;12380;51.118;4.176;2022-12-07T16:09:55;6.30;99.90
24252;DHT22;12380;51.118;4.176;2022-12-07T16:12:23;6.40;99.90
24252;DHT22;12380;51.118;4.176;2022-12-07T16:14:50;6.40;99.90
24252;DHT22;12380;51.118;4.176;2022-12-07T16:17:16;6.30;99.90
24252;DHT22;12380;51.118;4.176;2022-12-07T16:19:42;6.30;99.90
24252;DHT22;12380;51.118;4.176;2022-12-07T16:22:10;6.30;99.90
24252;DHT22;12380;51.118;4.176;2022-12-07T16:24:36;6.50;99.90
24252;DHT22;12380;51.118;4.176;2022-12-07T16:27:04;6.50;99.90
24252;DHT22;12380;51.118;4.176;2022-12-07T16:29:29;6.50;99.90
24252;DHT22;12380;51.118;4.176;2022-12-07T16:31:55;6.50;99.90
24252;DHT22;12380;51.118;4.176;2022-12-07T16:34:23;6.50;99.90
24252;DHT22;12380;51.118;4.176;2022-12-07T16:36:49;6.30;99.90
24252;DHT22;12380;51.118;4.176;2022-12-07T16:39:15;6.30;99.90
24252;DHT22;12380;51.118;4.176;2022-12-07T16:41:43;6.20;99.90
24252;DHT22;12380;51.118;4.176;2022-12-07T16:44:10;6.10;99.90
24252;DHT22;12380;51.118;4.176;2022-12-07T16:46:40;6.20;99.90
24252;DHT22;12380;51.118;4.176;2022-12-07T16:49:09;6.10;99.90
24252;DHT22;12380;51.118;4.176;2022-12-07T16:51:36;6.20;99.90
24252;DHT22;12380;51.118;4.176;2022-12-07T16:54:02;6.30;99.90
24252;DHT22;12380;51.118;4.176;2022-12-07T16:56:28;6.10;99.90
24252;DHT22;12380;51.118;4.176;2022-12-07T16:58:54;6.00;99.90
24252;DHT22;12380;51.118;4.176;2022-12-07T17:01:22;6.10;99.90
24252;DHT22;12380;51.118;4.176;2022-12-07T17:03:48;6.10;99.90
24252;DHT22;12380;51.118;4.176;2022-12-07T17:06:14;6.00;99.90
24252;DHT22;12380;51.118;4.176;2022-12-07T17:08:41;5.80;99.90
24252;DHT22;12380;51.118;4.176;2022-12-07T17:11:17;5.90;99.90
24252;DHT22;12380;51.118;4.176;2022-12-07T17:13:43;6.00;99.90
24252;DHT22;12380;51.118;4.176;2022-12-07T17:16:27;6.00;99.90
24252;DHT22;12380;51.118;4.176;2022-12-07T17:18:54;6.00;99.90
24252;DHT22;12380;51.118;4.176;2022-12-07T17:21:19;5.90;99.90
24252;DHT22;12380;51.118;4.176;2022-12-07T17:23:48;5.70;99.90
24252;DHT22;12380;51.118;4.176;2022-12-07T17:26:17;5.60;99.90
24252;DHT22;12380;51.118;4.176;2022-12-07T17:28:43;5.60;99.90
24252;DHT22;12380;51.118;4.176;2022-12-07T17:31:12;5.50;99.90
24252;DHT22;12380;51.118;4.176;2022-12-07T17:33:39;5.50;99.90
24252;DHT22;12380;51.118;4.176;2022-12-07T17:36:17;5.50;99.90
24252;DHT22;12380;51.118;4.176;2022-12-07T17:38:43;5.60;99.90
24252;DHT22;12380;51.118;4.176;2022-12-07T17:41:10;5.50;99.90